Time;durP1;ratioP1;P1;durP2;ratioP2;P2;SDS_P1;SDS_P2;PMS_P1;PMS_P2;Temp;Humidity;BMP_temperature;BMP_pressure;BME280_temperature;BME280_humidity;BME280_pressure;Samples;Min_cycle;Max_cycle;Signal;HPM_P1;HPM_P2
2022/06/13 00:01:19;;;;;;;;;;;;;;;22.91;48.80;99632.09;4477895;31;33651;-89
2022/06/13 00:03:49;;;;;;;;;;;;;;;22.86;49.06;99635.97;4480398;31;34176;-90
2022/06/13 00:06:18;;;;;;;;;;;;;;;22.82;49.41;99634.50;4479760;31;34642;-89
2022/06/13 00:08:46;;;;;;;;;;;;;;;22.71;49.38;99628.13;4477885;32;33236;-89
2022/06/13 00:11:17;;;;;;;;;;;;;;;22.76;49.39;99630.44;4472719;32;33992;-89
2022/06/13 00:13:46;;;;;;;;;;;;;;;22.78;49.02;99634.72;4475406;32;33533;-89
2022/06/13 00:16:15;;;;;;;;;;;;;;;22.71;49.40;99632.53;4466888;32;34158;-90
2022/06/13 00:18:47;;;;;;;;;;;;;;;22.61;49.83;99634.91;4464690;32;33247;-90
2022/06/13 00:21:18;;;;;;;;;;;;;;;22.55;50.09;99630.88;4469237;32;34378;-90
2022/06/13 00:23:49;;;;;;;;;;;;;;;22.56;50.12;99637.84;4483216;32;34268;-89
2022/06/13 00:26:18;;;;;;;;;;;;;;;22.40;50.56;99623.06;4489398;32;34766;-88
2022/06/13 00:28:46;;;;;;;;;;;;;;;22.25;50.91;99630.16;4480620;32;34543;-90
2022/06/13 00:31:14;;;;;;;;;;;;;;;22.28;50.76;99624.72;4467573;32;34092;-89
2022/06/13 00:33:43;;;;;;;;;;;;;;;22.42;50.54;99622.03;4472031;32;34211;-89
2022/06/13 00:36:12;;;;;;;;;;;;;;;22.35;50.47;99620.75;4484291;32;34043;-90
2022/06/13 00:38:42;;;;;;;;;;;;;;;22.17;51.13;99614.75;4480290;32;34070;-90
2022/06/13 00:41:11;;;;;;;;;;;;;;;22.26;50.83;99611.59;4484361;32;33818;-89
2022/06/13 00:43:40;;;;;;;;;;;;;;;22.33;50.61;99612.91;4484756;32;36189;-90
2022/06/13 00:46:19;;;;;;;;;;;;;;;22.04;51.18;99608.56;4479948;32;34021;-89
2022/06/13 00:48:48;;;;;;;;;;;;;;;22.05;51.31;99613.72;4477259;32;33237;-89
2022/06/13 00:51:16;;;;;;;;;;;;;;;22.05;51.21;99605.81;4484849;32;34154;-89
2022/06/13 00:53:46;;;;;;;;;;;;;;;22.06;51.22;99598.72;4476695;32;34991;-89
2022/06/13 00:56:15;;;;;;;;;;;;;;;22.13;51.01;99602.69;4479910;31;35897;-89
2022/06/13 00:58:45;;;;;;;;;;;;;;;22.10;51.12;99602.88;4475426;32;33297;-89
2022/06/13 01:01:13;;;;;;;;;;;;;;;21.93;51.85;99596.84;4477533;32;33503;-90
2022/06/13 01:03:46;;;;;;;;;;;;;;;21.78;52.20;99599.59;4485531;32;33953;-89
2022/06/13 01:06:14;;;;;;;;;;;;;;;21.68;52.38;99594.03;4477542;32;33815;-89
2022/06/13 01:08:43;;;;;;;;;;;;;;;21.91;51.87;99588.16;4477778;32;33359;-89
2022/06/13 01:11:18;;;;;;;;;;;;;;;21.89;51.56;99591.84;4477331;31;33658;-90
2022/06/13 01:14:08;;;;;;;;;;;;;;;21.84;51.60;99583.34;4475249;32;33857;-90
2022/06/13 01:16:39;;;;;;;;;;;;;;;21.78;51.69;99581.94;4476943;32;33940;-89
2022/06/13 01:19:23;;;;;;;;;;;;;;;21.78;51.77;99583.75;4481322;32;34138;-89
2022/06/13 01:21:53;;;;;;;;;;;;;;;21.69;52.06;99574.59;4479461;32;34397;-89
2022/06/13 01:24:37;;;;;;;;;;;;;;;21.52;52.23;99580.88;4475733;32;34227;-90
2022/06/13 01:27:14;;;;;;;;;;;;;;;21.54;52.23;99578.16;4475635;32;34153;-89
2022/06/13 01:29:45;;;;;;;;;;;;;;;21.44;52.56;99572.59;4485688;32;33384;-89
2022/06/13 01:32:24;;;;;;;;;;;;;;;21.47;52.52;99572.41;4479153;32;35133;-89
2022/06/13 01:34:56;;;;;;;;;;;;;;;21.46;52.13;99579.47;4471077;32;34199;-89
2022/06/13 01:37:28;;;;;;;;;;;;;;;21.26;52.40;99570.09;4483304;32;34173;-89
2022/06/13 01:40:01;;;;;;;;;;;;;;;21.38;52.66;99572.91;4477493;32;33494;-89
2022/06/13 01:42:34;;;;;;;;;;;;;;;21.41;52.50;99571.00;4471112;32;33739;-89
2022/06/13 01:45:05;;;;;;;;;;;;;;;21.36;52.76;99569.50;4477135;32;34992;-89
2022/06/13 01:47:35;;;;;;;;;;;;;;;21.15;53.30;99566.37;4479135;32;34327;-90
2022/06/13 01:50:12;;;;;;;;;;;;;;;21.30;52.64;99566.31;4477400;32;33721;-89
2022/06/13 01:52:43;;;;;;;;;;;;;;;21.19;53.27;99565.22;4484813;32;34710;-89
2022/06/13 01:55:13;;;;;;;;;;;;;;;21.26;52.62;99569.22;4485063;32;34254;-88
2022/06/13 01:57:44;;;;;;;;;;;;;;;21.10;53.10;99564.84;4486495;32;33812;-88
2022/06/13 02:00:13;;;;;;;;;;;;;;;21.12;53.29;99555.97;4482368;32;32607;-88
2022/06/13 02:02:45;;;;;;;;;;;;;;;21.16;53.28;99554.88;4485413;32;35492;-89
2022/06/13 02:05:15;;;;;;;;;;;;;;;21.09;53.54;99552.63;4484524;32;33530;-89
2022/06/13 02:07:44;;;;;;;;;;;;;;;21.11;53.71;99560.41;4479546;32;33384;-89
2022/06/13 02:10:34;;;;;;;;;;;;;;;21.22;53.40;99563.28;4480352;32;34047;-89
2022/06/13 02:13:04;;;;;;;;;;;;;;;21.17;53.68;99549.50;4480868;32;33899;-89
2022/06/13 02:15:34;;;;;;;;;;;;;;;21.19;53.24;99560.84;4476067;32;34531;-89
2022/06/13 02:18:05;;;;;;;;;;;;;;;21.01;54.02;99554.00;4479071;32;33954;-89
2022/06/13 02:20:35;;;;;;;;;;;;;;;20.85;54.35;99560.16;4485161;31;35194;-88
2022/06/13 02:23:05;;;;;;;;;;;;;;;20.77;54.35;99562.38;4478735;32;33445;-88
2022/06/13 02:25:38;;;;;;;;;;;;;;;20.82;53.66;99552.41;4480365;32;33465;-88
2022/06/13 02:28:08;;;;;;;;;;;;;;;20.83;53.54;99559.41;4479097;32;35326;-89
2022/06/13 02:30:44;;;;;;;;;;;;;;;20.72;54.07;99558.31;4478535;32;34148;-89
2022/06/13 02:33:15;;;;;;;;;;;;;;;20.82;53.55;99555.03;4478417;31;34336;-90
2022/06/13 02:35:44;;;;;;;;;;;;;;;20.95;53.28;99554.34;4484271;32;33715;-90
2022/06/13 02:38:14;;;;;;;;;;;;;;;20.88;53.62;99552.06;4480737;32;34267;-89
2022/06/13 02:40:45;;;;;;;;;;;;;;;20.76;54.05;99550.13;4481203;32;33277;-89
2022/06/13 02:43:15;;;;;;;;;;;;;;;20.82;54.17;99544.50;4477200;32;33922;-89
2022/06/13 02:45:46;;;;;;;;;;;;;;;20.85;53.90;99546.97;4477982;32;34223;-89
2022/06/13 02:48:17;;;;;;;;;;;;;;;20.84;53.87;99545.25;4483499;32;34697;-89
2022/06/13 02:50:48;;;;;;;;;;;;;;;20.65;54.08;99549.91;4479873;32;33832;-89
2022/06/13 02:53:18;;;;;;;;;;;;;;;20.77;53.85;99548.34;4480544;32;34860;-90
2022/06/13 02:55:50;;;;;;;;;;;;;;;20.65;54.25;99548.09;4480416;32;35096;-90
2022/06/13 02:58:23;;;;;;;;;;;;;;;20.61;54.33;99553.63;4473993;32;33716;-88
2022/06/13 03:00:54;;;;;;;;;;;;;;;20.38;54.83;99554.91;4471588;32;33247;-89
2022/06/13 03:03:25;;;;;;;;;;;;;;;20.56;54.41;99553.91;4484251;32;33303;-88
2022/06/13 03:05:55;;;;;;;;;;;;;;;20.57;54.04;99552.13;4479857;32;33988;-89
2022/06/13 03:08:35;;;;;;;;;;;;;;;20.50;54.37;99551.59;4479692;32;33726;-90
2022/06/13 03:11:06;;;;;;;;;;;;;;;20.52;54.64;99548.88;4480636;32;33624;-89
2022/06/13 03:13:37;;;;;;;;;;;;;;;20.53;54.80;99551.41;4478157;32;34792;-89
2022/06/13 03:16:07;;;;;;;;;;;;;;;20.52;54.86;99548.88;4479592;32;35165;-89
2022/06/13 03:18:40;;;;;;;;;;;;;;;20.55;54.91;99551.34;4482718;32;34223;-89
2022/06/13 03:21:10;;;;;;;;;;;;;;;20.65;54.53;99549.91;4479382;32;33292;-89
2022/06/13 03:23:40;;;;;;;;;;;;;;;20.57;54.71;99547.69;4476420;32;33152;-88
2022/06/13 03:26:09;;;;;;;;;;;;;;;20.50;55.13;99550.75;4480576;32;34882;-89
2022/06/13 03:28:41;;;;;;;;;;;;;;;20.27;55.66;99547.59;4476001;32;34091;-89
2022/06/13 03:31:11;;;;;;;;;;;;;;;20.46;55.27;99550.94;4483491;32;33375;-89
2022/06/13 03:33:41;;;;;;;;;;;;;;;20.55;55.10;99544.31;4477840;32;33968;-89
2022/06/13 03:36:10;;;;;;;;;;;;;;;20.54;55.32;99552.25;4480976;32;34271;-89
2022/06/13 03:38:39;;;;;;;;;;;;;;;20.70;55.13;99541.72;4478096;32;34066;-89
2022/06/13 03:41:08;;;;;;;;;;;;;;;20.69;55.27;99551.44;4480578;32;34028;-90
2022/06/13 03:43:37;;;;;;;;;;;;;;;20.74;55.14;99540.62;4482651;32;34184;-90
2022/06/13 03:46:06;;;;;;;;;;;;;;;20.75;55.12;99537.88;4485507;32;34225;-90
2022/06/13 03:48:36;;;;;;;;;;;;;;;20.85;54.74;99540.84;4480304;32;34190;-90
2022/06/13 03:51:07;;;;;;;;;;;;;;;20.88;54.64;99533.63;4480962;32;33860;-90
2022/06/13 03:53:39;;;;;;;;;;;;;;;20.94;54.73;99542.09;4480980;32;34969;-90
2022/06/13 03:56:09;;;;;;;;;;;;;;;20.97;54.38;99537.50;4480285;31;34140;-90
2022/06/13 03:58:39;;;;;;;;;;;;;;;21.08;54.23;99540.34;4484659;32;34518;-90
2022/06/13 04:01:09;;;;;;;;;;;;;;;21.13;54.33;99534.81;4481034;32;33136;-90
2022/06/13 04:03:38;;;;;;;;;;;;;;;21.17;54.16;99531.06;4480696;32;34866;-88
2022/06/13 04:06:28;;;;;;;;;;;;;;;21.22;54.25;99536.06;4479521;32;34926;-90
2022/06/13 04:08:56;;;;;;;;;;;;;;;21.14;53.90;99536.47;4473028;32;35052;-89
2022/06/13 04:11:31;;;;;;;;;;;;;;;21.16;53.84;99533.78;4478778;32;34011;-89
2022/06/13 04:14:01;;;;;;;;;;;;;;;21.23;53.33;99532.47;4469303;32;33804;-89
2022/06/13 04:16:33;;;;;;;;;;;;;;;21.38;53.39;99535.97;4477073;32;35705;-89
2022/06/13 04:19:05;;;;;;;;;;;;;;;21.50;52.89;99532.62;4475485;32;33945;-89
2022/06/13 04:21:38;;;;;;;;;;;;;;;21.48;53.41;99531.84;4479956;32;33601;-89
2022/06/13 04:24:12;;;;;;;;;;;;;;;21.47;53.26;99533.66;4476142;32;34089;-89
2022/06/13 04:26:41;;;;;;;;;;;;;;;21.81;52.74;99536.87;4479103;32;33464;-89
2022/06/13 04:29:10;;;;;;;;;;;;;;;21.87;52.84;99541.78;4482235;32;33665;-89
2022/06/13 04:31:39;;;;;;;;;;;;;;;22.01;52.46;99540.91;4474234;32;33697;-89
2022/06/13 04:34:08;;;;;;;;;;;;;;;22.14;51.50;99539.19;4478077;32;34145;-89
2022/06/13 04:36:38;;;;;;;;;;;;;;;22.50;51.62;99545.72;4477816;32;34704;-89
2022/06/13 04:39:07;;;;;;;;;;;;;;;22.88;50.59;99545.03;4474280;32;34685;-90
2022/06/13 04:41:36;;;;;;;;;;;;;;;23.56;49.02;99543.97;4485184;32;32173;-89
2022/06/13 04:44:05;;;;;;;;;;;;;;;24.23;47.17;99543.66;4478369;32;34122;-89
2022/06/13 04:46:34;;;;;;;;;;;;;;;24.87;45.98;99545.22;4478652;32;33919;-88
2022/06/13 04:49:04;;;;;;;;;;;;;;;25.72;43.32;99542.28;4476936;32;34878;-89
2022/06/13 04:51:38;;;;;;;;;;;;;;;26.35;40.94;99531.97;4470951;32;33223;-90
2022/06/13 04:54:10;;;;;;;;;;;;;;;27.18;38.82;99533.09;4482629;32;33569;-89
2022/06/13 04:56:39;;;;;;;;;;;;;;;27.58;37.26;99529.72;4481975;31;33600;-88
2022/06/13 04:59:07;;;;;;;;;;;;;;;27.97;35.95;99536.06;4477777;32;34277;-89
2022/06/13 05:01:36;;;;;;;;;;;;;;;27.95;35.47;99537.19;4477356;32;33419;-88
2022/06/13 05:04:06;;;;;;;;;;;;;;;27.75;36.96;99536.25;4475837;32;34989;-89
2022/06/13 05:06:36;;;;;;;;;;;;;;;27.70;36.65;99533.16;4477574;32;34052;-89
2022/06/13 05:09:15;;;;;;;;;;;;;;;27.39;37.29;99536.63;4482497;32;33884;-89
2022/06/13 05:11:46;;;;;;;;;;;;;;;27.48;37.52;99531.50;4479129;32;33247;-89
2022/06/13 05:14:17;;;;;;;;;;;;;;;27.51;37.27;99533.88;4477548;32;34130;-88
2022/06/13 05:16:48;;;;;;;;;;;;;;;27.52;37.81;99531.09;4475075;32;34703;-89
2022/06/13 05:19:25;;;;;;;;;;;;;;;27.48;38.51;99535.00;4474341;32;33693;-89
2022/06/13 05:21:56;;;;;;;;;;;;;;;27.48;38.60;99532.34;4479371;32;32594;-88
2022/06/13 05:24:33;;;;;;;;;;;;;;;27.33;37.34;99538.97;4480511;32;33809;-89
2022/06/13 05:27:08;;;;;;;;;;;;;;;27.03;38.24;99543.22;4470943;32;34140;-89
2022/06/13 05:29:37;;;;;;;;;;;;;;;26.68;38.96;99541.69;4471045;32;33649;-89
2022/06/13 05:32:06;;;;;;;;;;;;;;;26.75;39.32;99548.22;4476172;32;34016;-89
2022/06/13 05:34:35;;;;;;;;;;;;;;;26.89;39.25;99541.72;4477727;32;33866;-88
2022/06/13 05:37:04;;;;;;;;;;;;;;;26.94;39.23;99541.31;4480419;32;33921;-89
2022/06/13 05:39:34;;;;;;;;;;;;;;;27.00;37.41;99538.16;4479424;32;33740;-90
2022/06/13 05:42:02;;;;;;;;;;;;;;;26.93;37.85;99540.50;4475232;32;32985;-89
2022/06/13 05:44:31;;;;;;;;;;;;;;;27.02;38.07;99538.88;4478827;32;34062;-89
2022/06/13 05:46:59;;;;;;;;;;;;;;;27.43;36.54;99534.56;4476768;32;34895;-90
2022/06/13 05:49:28;;;;;;;;;;;;;;;27.71;35.99;99534.81;4478284;32;34202;-88
2022/06/13 05:51:56;;;;;;;;;;;;;;;27.96;34.20;99531.72;4481357;32;31773;-89
2022/06/13 05:54:28;;;;;;;;;;;;;;;27.97;34.21;99535.22;4478301;32;33950;-90
2022/06/13 05:56:58;;;;;;;;;;;;;;;27.96;35.22;99533.56;4475133;32;33794;-89
2022/06/13 05:59:26;;;;;;;;;;;;;;;28.12;34.61;99533.03;4477152;32;33601;-90
2022/06/13 06:01:55;;;;;;;;;;;;;;;28.05;33.35;99528.25;4477499;32;33318;-89
2022/06/13 06:04:23;;;;;;;;;;;;;;;27.67;33.98;99531.59;4483932;32;34856;-89
2022/06/13 06:06:52;;;;;;;;;;;;;;;27.46;34.84;99534.28;4478478;32;34667;-88
2022/06/13 06:09:23;;;;;;;;;;;;;;;27.40;35.31;99535.66;4476566;32;34143;-89
2022/06/13 06:11:51;;;;;;;;;;;;;;;27.41;35.35;99534.69;4476122;32;34018;-89
2022/06/13 06:14:21;;;;;;;;;;;;;;;27.27;36.33;99542.16;4476695;32;34527;-88
2022/06/13 06:16:49;;;;;;;;;;;;;;;27.05;35.38;99537.78;4472601;32;34233;-88
2022/06/13 06:19:18;;;;;;;;;;;;;;;27.23;35.44;99533.56;4465634;32;34242;-89
2022/06/13 06:21:46;;;;;;;;;;;;;;;27.18;36.45;99533.09;4467233;32;33273;-89
2022/06/13 06:24:15;;;;;;;;;;;;;;;26.86;36.39;99527.84;4463728;32;34241;-89
2022/06/13 06:26:44;;;;;;;;;;;;;;;27.28;35.58;99533.19;4475118;32;34914;-89
2022/06/13 06:29:12;;;;;;;;;;;;;;;27.24;35.81;99533.47;4472176;32;34207;-88
2022/06/13 06:31:42;;;;;;;;;;;;;;;27.11;36.15;99529.25;4475767;32;33071;-88
2022/06/13 06:34:11;;;;;;;;;;;;;;;27.01;35.57;99535.37;4476151;32;33883;-88
2022/06/13 06:36:39;;;;;;;;;;;;;;;27.30;35.27;99536.56;4474638;32;32860;-88
2022/06/13 06:39:08;;;;;;;;;;;;;;;26.91;36.17;99534.44;4480266;32;34715;-88
2022/06/13 06:41:36;;;;;;;;;;;;;;;27.37;35.30;99535.06;4478072;32;33244;-88
2022/06/13 06:44:05;;;;;;;;;;;;;;;27.30;35.62;99533.91;4478596;32;33930;-88
2022/06/13 06:46:33;;;;;;;;;;;;;;;27.28;36.06;99536.72;4472779;32;34859;-87
2022/06/13 06:49:03;;;;;;;;;;;;;;;27.65;33.85;99542.38;4475564;32;34166;-88
2022/06/13 06:51:33;;;;;;;;;;;;;;;27.57;35.23;99528.87;4474529;31;33685;-88
2022/06/13 07:02:20;;;;;;;;;;;;;;;27.61;34.25;99524.12;4473377;31;33982;-88
2022/06/13 07:04:50;;;;;;;;;;;;;;;27.70;34.50;99528.66;4481786;31;33813;-88
2022/06/13 07:07:18;;;;;;;;;;;;;;;27.86;34.46;99534.38;4480487;31;34634;-87
2022/06/13 07:09:47;;;;;;;;;;;;;;;27.91;33.59;99539.28;4475711;31;33699;-88
2022/06/13 07:12:16;;;;;;;;;;;;;;;28.02;33.00;99535.66;4485738;31;35632;-88
2022/06/13 07:14:44;;;;;;;;;;;;;;;28.06;34.33;99545.94;4475915;31;33519;-89
2022/06/13 07:17:14;;;;;;;;;;;;;;;28.20;33.72;99538.53;4478103;31;33740;-88
2022/06/13 07:19:44;;;;;;;;;;;;;;;28.07;34.80;99536.09;4482065;31;34727;-88
2022/06/13 07:22:15;;;;;;;;;;;;;;;27.78;34.54;99535.97;4475225;31;33192;-88
2022/06/13 07:24:43;;;;;;;;;;;;;;;27.75;34.80;99534.41;4473747;31;34111;-88
2022/06/13 07:27:13;;;;;;;;;;;;;;;27.67;34.78;99529.75;4476760;31;34077;-89
2022/06/13 07:29:41;;;;;;;;;;;;;;;27.96;34.61;99528.22;4477978;31;34886;-88
2022/06/13 07:32:12;;;;;;;;;;;;;;;28.28;34.29;99528.00;4481436;31;34188;-89
2022/06/13 07:34:40;;;;;;;;;;;;;;;28.56;32.95;99531.75;4478758;31;32419;-88
2022/06/13 07:37:11;;;;;;;;;;;;;;;28.45;33.48;99526.50;4470902;31;33430;-88
2022/06/13 07:39:40;;;;;;;;;;;;;;;28.39;33.75;99532.38;4473928;31;33989;-88
2022/06/13 07:42:10;;;;;;;;;;;;;;;28.41;33.69;99536.59;4465803;31;33488;-88
2022/06/13 07:44:39;;;;;;;;;;;;;;;28.12;34.10;99533.03;4473377;31;33605;-89
2022/06/13 07:47:07;;;;;;;;;;;;;;;28.18;34.19;99521.81;4476910;31;33935;-88
2022/06/13 07:49:38;;;;;;;;;;;;;;;28.59;33.98;99530.63;4479756;31;34576;-89
2022/06/13 07:52:06;;;;;;;;;;;;;;;28.52;32.90;99527.66;4473560;31;34153;-88
2022/06/13 07:54:34;;;;;;;;;;;;;;;28.61;33.33;99529.50;4474065;31;33408;-88
2022/06/13 07:57:05;;;;;;;;;;;;;;;28.44;33.84;99520.31;4478499;31;34392;-88
2022/06/13 07:59:35;;;;;;;;;;;;;;;28.31;35.87;99527.72;4484584;31;33857;-88
2022/06/13 08:02:04;;;;;;;;;;;;;;;28.41;34.59;99525.91;4473148;31;91893;-89
2022/06/13 08:04:33;;;;;;;;;;;;;;;28.74;34.55;99528.37;4477250;31;34978;-88
2022/06/13 08:07:21;;;;;;;;;;;;;;;28.68;35.04;99527.97;4474987;31;33623;-89
2022/06/13 08:09:50;;;;;;;;;;;;;;;28.83;34.73;99519.53;4473669;31;34250;-88
2022/06/13 08:12:26;;;;;;;;;;;;;;;28.93;33.06;99513.19;4476892;31;33042;-89
2022/06/13 08:14:55;;;;;;;;;;;;;;;29.13;32.52;99514.00;4486537;31;34731;-88
2022/06/13 08:17:23;;;;;;;;;;;;;;;29.22;33.09;99512.31;4480161;31;34574;-88
2022/06/13 08:19:52;;;;;;;;;;;;;;;29.14;31.13;99513.03;4473573;31;34216;-88
2022/06/13 08:22:20;;;;;;;;;;;;;;;29.23;31.77;99511.31;4475234;31;34121;-89
2022/06/13 08:24:49;;;;;;;;;;;;;;;29.33;32.78;99513.97;4482373;31;33758;-89
2022/06/13 08:27:17;;;;;;;;;;;;;;;29.41;34.29;99508.75;4482343;31;34133;-88
2022/06/13 08:29:47;;;;;;;;;;;;;;;29.31;34.97;99514.13;4488623;31;33260;-89
2022/06/13 08:32:21;;;;;;;;;;;;;;;29.64;33.51;99511.06;4493250;31;32228;-88
2022/06/13 08:34:50;;;;;;;;;;;;;;;29.64;31.43;99513.72;4490106;31;34103;-88
2022/06/13 08:37:18;;;;;;;;;;;;;;;29.56;30.61;99511.81;4488974;31;34257;-88
2022/06/13 08:39:47;;;;;;;;;;;;;;;29.33;32.09;99513.97;4477792;31;34701;-88
2022/06/13 08:42:18;;;;;;;;;;;;;;;29.34;32.61;99513.84;4485607;31;33887;-89
2022/06/13 08:44:55;;;;;;;;;;;;;;;29.35;33.39;99512.84;4477615;31;33211;-88
2022/06/13 08:47:27;;;;;;;;;;;;;;;29.74;32.91;99511.88;4476780;31;35152;-89
2022/06/13 08:50:04;;;;;;;;;;;;;;;29.66;32.30;99511.75;4482606;31;34419;-88
2022/06/13 08:52:34;;;;;;;;;;;;;;;29.68;33.07;99515.16;4477088;31;33425;-88
2022/06/13 08:55:10;;;;;;;;;;;;;;;29.92;33.30;99514.63;4469226;31;32525;-88
2022/06/13 08:57:40;;;;;;;;;;;;;;;29.93;32.23;99502.94;4475529;31;34169;-88
2022/06/13 09:00:12;;;;;;;;;;;;;;;29.78;31.88;99502.59;4476249;31;32821;-89
2022/06/13 09:02:43;;;;;;;;;;;;;;;30.10;30.63;99502.12;4477646;31;33289;-89
2022/06/13 09:05:13;;;;;;;;;;;;;;;29.99;30.70;99503.19;4483549;31;34581;-88
2022/06/13 09:07:42;;;;;;;;;;;;;;;29.57;30.21;99497.44;4477157;31;33841;-88
2022/06/13 09:10:13;;;;;;;;;;;;;;;29.59;31.96;99497.28;4479072;31;33988;-88
2022/06/13 09:12:43;;;;;;;;;;;;;;;29.26;31.94;99504.84;4477037;31;33173;-89
2022/06/13 09:15:14;;;;;;;;;;;;;;;28.90;31.92;99497.44;4476297;31;33836;-89
2022/06/13 09:17:45;;;;;;;;;;;;;;;28.41;33.15;99487.72;4476250;31;34060;-88
2022/06/13 09:20:15;;;;;;;;;;;;;;;29.20;32.08;99492.91;4478852;31;33825;-88
2022/06/13 09:22:45;;;;;;;;;;;;;;;29.30;31.62;99492.91;4478832;31;33313;-88
2022/06/13 09:25:17;;;;;;;;;;;;;;;29.19;32.58;99485.91;4481501;31;34323;-88
2022/06/13 09:27:54;;;;;;;;;;;;;;;29.16;30.93;99480.81;4473293;31;33557;-88
2022/06/13 09:30:27;;;;;;;;;;;;;;;29.10;32.41;99476.09;4473817;31;33945;-88
2022/06/13 09:32:56;;;;;;;;;;;;;;;29.56;30.67;99477.88;4474783;31;33032;-88
2022/06/13 09:35:26;;;;;;;;;;;;;;;29.44;31.66;99465.69;4474877;31;33616;-88
2022/06/13 09:37:57;;;;;;;;;;;;;;;29.84;32.25;99474.41;4480447;31;33788;-89
2022/06/13 09:40:27;;;;;;;;;;;;;;;29.63;31.26;99470.13;4492625;31;34231;-88
2022/06/13 09:43:20;;;;;;;;;;;;;;;29.50;31.23;99461.59;4491916;31;32976;-89
2022/06/13 09:45:53;;;;;;;;;;;;;;;29.93;29.35;99463.66;4492324;31;35412;-89
2022/06/13 09:48:25;;;;;;;;;;;;;;;29.65;30.34;99462.81;4490589;31;33672;-88
2022/06/13 09:50:57;;;;;;;;;;;;;;;29.96;30.89;99454.47;4490838;31;33814;-88
2022/06/13 09:53:28;;;;;;;;;;;;;;;29.88;29.54;99460.59;4479438;31;34080;-88
2022/06/13 09:56:00;;;;;;;;;;;;;;;29.94;29.35;99454.66;4471436;32;33314;-89
2022/06/13 09:58:30;;;;;;;;;;;;;;;29.90;28.10;99444.41;4472165;31;34050;-89
2022/06/13 10:04:43;;;;;;;;;;;;;;;30.04;29.32;99435.03;4478407;31;34740;-89
2022/06/13 10:07:13;;;;;;;;;;;;;;;30.34;30.28;99426.62;4475455;31;33779;-89
2022/06/13 10:13:27;;;;;;;;;;;;;;;30.75;28.73;99420.78;4465874;31;33395;-89
2022/06/13 10:15:58;;;;;;;;;;;;;;;31.06;28.65;99428.38;4481460;31;32758;-88
2022/06/13 10:18:34;;;;;;;;;;;;;;;31.02;28.72;99428.69;4479222;31;34184;-88
2022/06/13 10:21:07;;;;;;;;;;;;;;;30.71;29.45;99430.97;4477181;31;34243;-88
2022/06/13 10:23:36;;;;;;;;;;;;;;;30.75;28.79;99428.81;4483563;31;33660;-89
2022/06/13 10:26:06;;;;;;;;;;;;;;;30.76;29.52;99419.75;4477087;31;33295;-89
2022/06/13 10:28:50;;;;;;;;;;;;;;;30.96;29.52;99415.94;4478518;31;34592;-89
2022/06/13 10:31:21;;;;;;;;;;;;;;;31.09;30.41;99410.12;4478524;31;33581;-89
2022/06/13 10:33:53;;;;;;;;;;;;;;;31.26;28.63;99416.41;4474403;31;33801;-89
2022/06/13 10:36:26;;;;;;;;;;;;;;;31.34;28.10;99403.06;4481136;31;32532;-90
2022/06/13 10:38:58;;;;;;;;;;;;;;;31.62;28.18;99395.66;4482253;31;34171;-89
2022/06/13 10:41:27;;;;;;;;;;;;;;;32.07;28.99;99407.03;4478421;31;33884;-89
2022/06/13 10:43:56;;;;;;;;;;;;;;;32.34;27.00;99399.69;4478467;31;33722;-89
2022/06/13 10:46:24;;;;;;;;;;;;;;;32.46;28.12;99403.69;4480229;31;33181;-89
2022/06/13 10:48:56;;;;;;;;;;;;;;;32.55;28.47;99399.19;4484635;31;34496;-89
2022/06/13 10:51:26;;;;;;;;;;;;;;;32.51;27.27;99386.09;4478347;31;33682;-89
2022/06/13 10:53:55;;;;;;;;;;;;;;;32.38;26.97;99392.94;4475881;31;33591;-89
2022/06/13 10:56:26;;;;;;;;;;;;;;;32.13;27.58;99387.56;4475732;31;34266;-89
2022/06/13 10:58:56;;;;;;;;;;;;;;;32.35;27.68;99379.88;4477925;31;34051;-89
2022/06/13 11:01:25;;;;;;;;;;;;;;;32.53;27.56;99369.00;4480385;31;34612;-89
2022/06/13 11:04:01;;;;;;;;;;;;;;;32.69;28.20;99375.19;4477576;31;34347;-90
2022/06/13 11:06:35;;;;;;;;;;;;;;;33.19;26.41;99377.75;4463894;31;32713;-89
2022/06/13 11:09:04;;;;;;;;;;;;;;;33.22;26.51;99370.16;4477010;31;34120;-89
2022/06/13 11:11:34;;;;;;;;;;;;;;;33.10;25.66;99366.19;4477816;31;33709;-88
2022/06/13 11:14:03;;;;;;;;;;;;;;;33.02;26.72;99361.66;4470207;31;34076;-89
2022/06/13 11:25:04;;;;;;;;;;;;;;;32.77;27.44;99352.00;4472287;31;34400;-89
2022/06/13 11:27:43;;;;;;;;;;;;;;;31.23;29.23;99358.63;4470785;31;32824;-88
2022/06/13 11:30:18;;;;;;;;;;;;;;;30.92;30.68;99352.94;4472186;31;34593;-89
2022/06/13 11:32:59;;;;;;;;;;;;;;;30.60;31.98;99353.56;4474392;31;34222;-89
2022/06/13 11:35:28;;;;;;;;;;;;;;;30.32;33.26;99350.19;4472009;31;34406;-89
2022/06/13 11:38:00;;;;;;;;;;;;;;;29.75;34.52;99351.31;4478681;31;33213;-89
2022/06/13 11:40:29;;;;;;;;;;;;;;;29.96;34.74;99356.38;4470429;31;34865;-89
2022/06/13 11:42:57;;;;;;;;;;;;;;;30.07;34.38;99341.09;4476308;31;35117;-88
2022/06/13 11:45:27;;;;;;;;;;;;;;;30.18;34.77;99341.69;4466762;31;33306;-88
2022/06/13 11:47:55;;;;;;;;;;;;;;;30.40;34.25;99345.75;4474085;31;33313;-89
2022/06/13 11:50:26;;;;;;;;;;;;;;;30.59;34.32;99336.69;4478960;31;34837;-89
2022/06/13 11:55:51;;;;;;;;;;;;;;;30.68;33.52;99339.38;4471105;31;35990;-89
2022/06/13 11:58:20;;;;;;;;;;;;;;;30.68;34.69;99332.19;4474046;31;32030;-89
2022/06/13 12:00:50;;;;;;;;;;;;;;;30.90;33.78;99328.16;4478184;31;33845;-89
2022/06/13 12:03:20;;;;;;;;;;;;;;;30.94;33.81;99326.84;4477461;31;33977;-89
2022/06/13 12:05:50;;;;;;;;;;;;;;;31.08;32.67;99320.06;4478040;31;32789;-88
2022/06/13 12:08:24;;;;;;;;;;;;;;;31.36;32.09;99317.13;4478697;31;32730;-89
2022/06/13 12:10:58;;;;;;;;;;;;;;;31.16;32.02;99316.56;4469241;31;33951;-88
2022/06/13 12:13:28;;;;;;;;;;;;;;;31.34;32.25;99320.00;4471619;31;33749;-89
2022/06/13 12:15:58;;;;;;;;;;;;;;;31.42;31.77;99312.00;4473592;31;33953;-89
2022/06/13 12:18:27;;;;;;;;;;;;;;;31.68;29.40;99305.69;4473682;31;33420;-89
2022/06/13 12:21:00;;;;;;;;;;;;;;;31.94;28.66;99304.69;4475389;31;34222;-89
2022/06/13 12:23:29;;;;;;;;;;;;;;;32.22;28.29;99300.69;4474206;31;33789;-90
2022/06/13 12:26:01;;;;;;;;;;;;;;;32.45;29.33;99302.66;4483026;31;34620;-89
2022/06/13 12:28:32;;;;;;;;;;;;;;;32.29;28.45;99312.44;4474051;31;33108;-89
2022/06/13 12:31:01;;;;;;;;;;;;;;;32.10;29.34;99305.56;4475618;31;34198;-89
2022/06/13 12:33:34;;;;;;;;;;;;;;;31.76;30.48;99300.31;4474463;31;32276;-89
2022/06/13 12:36:07;;;;;;;;;;;;;;;32.13;31.07;99309.75;4478471;31;34563;-90
2022/06/13 12:38:54;;;;;;;;;;;;;;;31.93;28.38;99306.53;4479523;31;33520;-90
2022/06/13 12:41:28;;;;;;;;;;;;;;;32.19;28.78;99298.34;4485744;31;34307;-89
2022/06/13 12:44:03;;;;;;;;;;;;;;;32.43;29.41;99293.97;4480587;31;34267;-88
2022/06/13 12:46:40;;;;;;;;;;;;;;;32.79;28.36;99285.47;4471421;32;33315;-89
2022/06/13 12:49:18;;;;;;;;;;;;;;;32.71;28.14;99284.50;4477390;31;34725;-88
2022/06/13 12:51:49;;;;;;;;;;;;;;;32.97;27.31;99277.19;4478587;31;34659;-89
2022/06/13 12:54:29;;;;;;;;;;;;;;;33.06;27.82;99282.41;4475432;31;35001;-90
2022/06/13 12:57:01;;;;;;;;;;;;;;;32.60;27.04;99284.87;4475909;31;33949;-89
2022/06/13 12:59:38;;;;;;;;;;;;;;;32.61;30.54;99286.56;4483162;31;33361;-89
2022/06/13 13:02:22;;;;;;;;;;;;;;;32.35;32.19;99277.84;4479897;31;33696;-90
2022/06/13 13:04:58;;;;;;;;;;;;;;;32.51;32.66;99286.75;4477998;31;32821;-91
2022/06/13 13:07:28;;;;;;;;;;;;;;;32.59;32.40;99287.72;4477288;31;34198;-90
2022/06/13 13:10:17;;;;;;;;;;;;;;;32.40;33.17;99288.91;4487478;31;33078;-90
2022/06/13 13:12:52;;;;;;;;;;;;;;;31.68;33.90;99286.91;4477742;31;33999;-89
2022/06/13 13:15:22;;;;;;;;;;;;;;;31.09;34.65;99289.56;4473334;31;33746;-89
2022/06/13 13:17:52;;;;;;;;;;;;;;;31.10;34.45;99279.69;4474777;31;34924;-89
2022/06/13 13:20:22;;;;;;;;;;;;;;;30.92;35.20;99287.84;4475713;31;36595;-91
2022/06/13 13:22:52;;;;;;;;;;;;;;;30.73;35.63;99296.91;4468555;31;33881;-89
2022/06/13 13:25:40;;;;;;;;;;;;;;;30.95;35.41;99292.84;4474825;31;34247;-89
2022/06/13 13:28:16;;;;;;;;;;;;;;;31.07;35.49;99301.44;4479037;31;34119;-89
2022/06/13 13:30:47;;;;;;;;;;;;;;;30.41;35.55;99291.19;4474221;31;32749;-88
2022/06/13 13:33:19;;;;;;;;;;;;;;;29.91;37.02;99310.53;4470376;31;33993;-88
2022/06/13 13:35:49;;;;;;;;;;;;;;;29.85;36.05;99304.97;4470630;31;33822;-89